createdAt,value
2018-09-18T00:00:11.289Z,79.40
2018-09-18T00:02:39.557Z,79.40
2018-09-18T00:05:07.590Z,79.10
2018-09-18T00:10:04.482Z,79.20
2018-09-18T00:12:32.779Z,79.10
2018-09-18T00:19:56.957Z,79.70
2018-09-18T00:22:25.135Z,79.50
2018-09-18T00:24:53.435Z,79.80
2018-09-18T00:27:21.471Z,79.80
2018-09-18T00:29:49.602Z,79.70
2018-09-18T00:32:17.907Z,79.80
2018-09-18T00:34:46.004Z,79.60
2018-09-18T00:37:14.032Z,80.00
2018-09-18T00:39:42.259Z,79.90
2018-09-18T00:42:10.510Z,79.90
2018-09-18T00:44:38.624Z,79.80
2018-09-18T00:47:06.658Z,79.80
2018-09-18T00:49:34.708Z,79.80
2018-09-18T00:52:02.859Z,79.60
2018-09-18T00:56:58.974Z,79.80
2018-09-18T00:59:26.995Z,80.00
2018-09-18T01:04:23.195Z,79.90
2018-09-18T01:06:51.305Z,79.50
2018-09-18T01:09:19.643Z,79.50
2018-09-18T01:11:47.675Z,79.70
2018-09-18T01:16:43.801Z,80.10
2018-09-18T01:19:11.937Z,80.40
2018-09-18T01:21:40.051Z,80.40
2018-09-18T01:24:08.409Z,80.50
2018-09-18T01:29:04.485Z,80.50
2018-09-18T01:31:32.561Z,80.20
2018-09-18T01:34:00.654Z,80.20
2018-09-18T01:36:28.735Z,80.20
2018-09-18T01:38:56.787Z,80.20
2018-09-18T01:41:24.885Z,80.20
2018-09-18T01:43:52.901Z,79.90
2018-09-18T01:46:21.039Z,79.70
2018-09-18T01:48:49.385Z,79.50
2018-09-18T01:51:17.392Z,79.50
2018-09-18T01:53:45.537Z,79.40
2018-09-18T01:56:13.618Z,79.40
2018-09-18T02:01:09.755Z,79.20
2018-09-18T02:03:38.101Z,79.10
2018-09-18T02:13:30.722Z,79.50
2018-09-18T02:18:28.121Z,80.10
2018-09-18T02:23:24.493Z,79.80
2018-09-18T02:25:53.773Z,79.80
2018-09-18T02:28:21.889Z,79.70
2018-09-18T02:30:49.924Z,80.00
2018-09-18T02:33:18.026Z,80.10
2018-09-18T02:35:46.090Z,79.90
2018-09-18T02:38:14.164Z,80.10
2018-09-18T02:40:42.243Z,80.00
2018-09-18T02:45:38.457Z,79.70
2018-09-18T02:48:07.253Z,79.50
2018-09-18T02:50:35.458Z,79.70
2018-09-18T02:53:03.529Z,79.60
2018-09-18T02:55:31.617Z,79.20
2018-09-18T02:57:59.619Z,79.40
2018-09-18T03:00:27.742Z,79.10
2018-09-18T03:02:55.819Z,78.70
2018-09-18T03:05:23.899Z,78.50
2018-09-18T03:07:51.935Z,78.30
2018-09-18T03:10:20.015Z,78.60
2018-09-18T03:12:49.294Z,78.30
2018-09-18T03:15:17.390Z,78.10
2018-09-18T03:17:45.468Z,77.70
2018-09-18T03:20:13.499Z,77.50
2018-09-18T03:22:42.093Z,77.70
2018-09-18T03:30:06.846Z,78.60
2018-09-18T03:37:30.602Z,78.60
2018-09-18T03:39:58.795Z,78.60
2018-09-18T03:42:27.074Z,78.20
2018-09-18T03:44:55.164Z,78.00
2018-09-18T03:47:23.207Z,78.10
2018-09-18T03:49:53.159Z,78.10
2018-09-18T03:52:21.203Z,78.70
2018-09-18T03:54:49.316Z,78.50
2018-09-18T03:57:17.364Z,78.30
2018-09-18T03:59:45.405Z,78.20
2018-09-18T04:02:14.470Z,78.20
2018-09-18T04:07:10.629Z,78.10
2018-09-18T04:09:39.005Z,78.20
2018-09-18T04:12:07.318Z,78.00
2018-09-18T04:14:35.439Z,77.80
2018-09-18T04:19:31.556Z,77.70
2018-09-18T04:21:59.610Z,77.60
2018-09-18T04:24:27.667Z,77.40
2018-09-18T04:29:23.872Z,77.50
2018-09-18T04:34:19.983Z,77.70
2018-09-18T04:36:48.161Z,78.00
2018-09-18T04:41:44.171Z,77.50
2018-09-18T04:44:13.466Z,77.40
2018-09-18T04:46:41.557Z,76.90
2018-09-18T04:49:09.676Z,76.90
2018-09-18T04:54:05.853Z,76.80
2018-09-18T04:59:01.945Z,77.50
2018-09-18T05:01:29.951Z,77.30
2018-09-18T05:03:59.347Z,77.70
2018-09-18T05:06:27.623Z,77.70
2018-09-18T05:08:56.173Z,77.90
2018-09-18T05:11:24.620Z,77.50
2018-09-18T05:16:20.870Z,77.40
2018-09-18T05:18:48.906Z,76.70
2018-09-18T05:23:45.998Z,76.20
2018-09-18T05:26:14.096Z,76.00
2018-09-18T05:31:10.295Z,75.30
2018-09-18T05:33:38.650Z,75.00
2018-09-18T05:36:07.877Z,74.30
2018-09-18T05:41:04.333Z,73.90
2018-09-18T05:43:32.410Z,73.50
2018-09-18T05:48:33.687Z,73.20
2018-09-18T05:51:01.979Z,72.60
2018-09-18T05:53:30.002Z,73.10
2018-09-18T05:55:58.290Z,73.20
2018-09-18T06:00:54.827Z,71.60
2018-09-18T06:03:23.167Z,71.40
2018-09-18T06:08:22.690Z,70.50
2018-09-18T06:13:18.820Z,67.70
2018-09-18T06:20:43.610Z,66.40
2018-09-18T06:23:11.760Z,66.00
2018-09-18T06:25:40.086Z,65.20
2018-09-18T06:28:08.197Z,65.50
2018-09-18T06:33:04.371Z,64.50
2018-09-18T06:35:32.717Z,64.30
2018-09-18T06:38:01.958Z,63.70
2018-09-18T06:42:58.066Z,62.50
2018-09-18T06:45:26.242Z,62.10
2018-09-18T06:47:55.323Z,60.60
2018-09-18T06:50:23.571Z,60.70
2018-09-18T07:02:46.021Z,60.30
2018-09-18T07:07:42.229Z,58.60
2018-09-18T07:10:10.278Z,58.70
2018-09-18T07:15:06.542Z,57.80
2018-09-18T07:17:34.803Z,56.80
2018-09-18T07:20:03.003Z,57.10
2018-09-18T07:22:31.202Z,57.50
2018-09-18T07:24:59.389Z,57.90
2018-09-18T07:27:27.367Z,57.30
2018-09-18T07:29:55.420Z,56.40
2018-09-18T07:32:23.505Z,55.60
2018-09-18T07:37:19.668Z,55.40
2018-09-18T07:39:47.686Z,54.50
2018-09-18T07:42:15.851Z,54.50
2018-09-18T07:44:44.241Z,53.30
2018-09-18T07:47:12.289Z,52.70
2018-09-18T07:49:40.292Z,51.90
2018-09-18T07:52:08.471Z,50.40
2018-09-18T07:54:36.744Z,49.80
2018-09-18T07:59:37.199Z,49.40
2018-09-18T08:07:01.919Z,49.50
2018-09-18T08:09:30.084Z,48.30
2018-09-18T08:11:58.171Z,48.10
2018-09-18T08:14:26.217Z,48.10
2018-09-18T08:16:54.310Z,47.90
2018-09-18T08:19:22.455Z,48.20
2018-09-18T08:21:50.661Z,47.80
2018-09-18T08:24:18.872Z,47.30
2018-09-18T08:26:46.855Z,46.50
2018-09-18T08:29:17.148Z,45.90
2018-09-18T08:34:13.283Z,44.60
2018-09-18T08:41:39.302Z,44.00
2018-09-18T08:44:07.338Z,44.10
2018-09-18T08:51:31.630Z,42.30
2018-09-18T08:53:59.729Z,42.90
2018-09-18T08:56:27.766Z,42.80
2018-09-18T09:03:51.963Z,43.50
2018-09-18T09:06:20.171Z,42.60
2018-09-18T09:08:49.054Z,41.40
2018-09-18T09:11:17.090Z,41.00
2018-09-18T09:13:45.297Z,40.70
2018-09-18T09:18:41.389Z,39.30
2018-09-18T09:23:37.433Z,39.70
2018-09-18T09:26:05.844Z,39.70
2018-09-18T09:31:01.976Z,40.70
2018-09-18T09:33:30.109Z,39.90
2018-09-18T09:35:58.144Z,40.00
2018-09-18T09:38:26.203Z,39.30
2018-09-18T09:40:56.755Z,39.20
2018-09-18T09:43:24.767Z,39.20
2018-09-18T09:48:21.081Z,39.10
2018-09-18T09:50:49.319Z,38.60
2018-09-18T09:53:17.409Z,38.50
2018-09-18T09:55:45.496Z,38.50
2018-09-18T09:58:13.574Z,39.40
2018-09-18T10:00:47.230Z,39.80
2018-09-18T10:03:15.604Z,39.40
2018-09-18T10:08:12.174Z,38.10
2018-09-18T10:13:08.491Z,38.90
2018-09-18T10:15:36.880Z,39.90
2018-09-18T10:20:32.986Z,39.50
2018-09-18T10:23:01.065Z,40.10
2018-09-18T10:27:57.197Z,40.00
2018-09-18T10:35:21.386Z,39.30
2018-09-18T10:37:49.503Z,38.60
2018-09-18T10:45:14.022Z,39.10
2018-09-18T10:50:10.077Z,40.00
2018-09-18T10:52:38.205Z,39.50
2018-09-18T10:55:06.238Z,39.30
2018-09-18T11:00:02.450Z,39.70
2018-09-18T11:02:30.749Z,39.10
2018-09-18T11:04:58.835Z,40.00
2018-09-18T11:09:55.056Z,41.60
2018-09-18T11:14:51.500Z,41.70
2018-09-18T11:17:19.802Z,40.00
2018-09-18T11:19:47.857Z,38.60
2018-09-18T11:22:16.402Z,37.80
2018-09-18T11:27:12.379Z,36.70
2018-09-18T11:29:40.946Z,37.70
2018-09-18T11:34:38.147Z,35.90
2018-09-18T11:37:06.369Z,35.50
2018-09-18T11:39:34.596Z,35.50
2018-09-18T11:42:02.625Z,36.50
2018-09-18T11:44:31.031Z,36.70
2018-09-18T11:46:59.111Z,37.10
2018-09-18T11:49:27.223Z,37.10
2018-09-18T11:51:55.252Z,36.70
2018-09-18T11:54:23.404Z,36.50
2018-09-18T11:59:19.454Z,36.40
2018-09-18T12:06:43.218Z,39.40
2018-09-18T12:09:11.840Z,39.50
2018-09-18T12:11:40.797Z,40.10
2018-09-18T12:16:36.887Z,39.10
2018-09-18T12:19:05.126Z,39.00
2018-09-18T12:21:33.297Z,37.60
2018-09-18T12:24:01.426Z,37.90
2018-09-18T12:26:30.738Z,37.90
2018-09-18T12:29:00.050Z,37.80
2018-09-18T12:31:28.043Z,38.30
2018-09-18T12:33:56.155Z,38.40
2018-09-18T12:36:24.211Z,38.10
2018-09-18T12:38:52.299Z,38.20
2018-09-18T12:41:20.397Z,38.60
2018-09-18T12:43:48.482Z,39.00
2018-09-18T12:46:16.494Z,38.60
2018-09-18T12:48:44.569Z,38.00
2018-09-18T12:51:12.712Z,38.20
2018-09-18T12:53:41.065Z,39.20
2018-09-18T12:56:09.467Z,38.40
2018-09-18T12:58:37.832Z,38.90
2018-09-18T13:01:05.849Z,39.10
2018-09-18T13:03:33.905Z,38.90
2018-09-18T13:08:30.118Z,39.60
2018-09-18T13:10:58.149Z,39.60
2018-09-18T13:13:26.253Z,38.20
2018-09-18T13:15:54.315Z,39.10
2018-09-18T13:20:50.452Z,39.80
2018-09-18T13:23:18.500Z,39.20
2018-09-18T13:28:14.664Z,38.10
2018-09-18T13:30:42.641Z,39.00
2018-09-18T13:33:10.798Z,39.90
2018-09-18T13:35:38.981Z,39.90
2018-09-18T13:38:07.489Z,39.90
2018-09-18T13:40:35.468Z,40.10
2018-09-18T13:45:31.415Z,41.00
2018-09-18T13:47:59.529Z,41.70
2018-09-18T13:50:27.706Z,42.00
2018-09-18T13:52:55.965Z,42.10
2018-09-18T13:55:24.091Z,42.40
2018-09-18T13:57:52.497Z,42.40
2018-09-18T14:00:20.910Z,41.90
2018-09-18T14:02:49.192Z,42.10
2018-09-18T14:05:17.224Z,41.70
2018-09-18T14:07:45.625Z,41.60
2018-09-18T14:12:42.985Z,42.00
2018-09-18T14:17:39.531Z,42.10
2018-09-18T14:22:36.304Z,41.10
2018-09-18T14:25:04.777Z,41.70
2018-09-18T14:32:29.482Z,42.60
2018-09-18T14:37:25.439Z,43.10
2018-09-18T14:39:53.589Z,42.20
2018-09-18T14:42:21.822Z,42.40
2018-09-18T14:44:50.076Z,42.50
2018-09-18T14:47:18.110Z,43.20
2018-09-18T14:49:46.701Z,43.20
2018-09-18T14:52:18.298Z,43.80
2018-09-18T14:54:46.760Z,43.60
2018-09-18T14:57:15.021Z,43.90
2018-09-18T14:59:43.154Z,44.00
2018-09-18T15:02:12.390Z,44.30
2018-09-18T15:04:40.977Z,44.60
2018-09-18T15:07:09.147Z,45.10
2018-09-18T15:09:37.221Z,45.30
2018-09-18T15:14:33.660Z,45.60
2018-09-18T15:17:01.735Z,45.30
2018-09-18T15:19:29.891Z,45.10
2018-09-18T15:21:58.239Z,45.10
2018-09-18T15:24:26.627Z,45.20
2018-09-18T15:29:22.683Z,45.70
2018-09-18T15:31:51.069Z,45.50
2018-09-18T15:34:19.166Z,45.30
2018-09-18T15:39:15.365Z,45.80
2018-09-18T15:44:11.417Z,46.40
2018-09-18T15:46:41.449Z,46.40
2018-09-18T15:49:09.785Z,46.50
2018-09-18T15:51:37.904Z,46.70
2018-09-18T15:54:06.419Z,47.00
2018-09-18T15:56:34.581Z,47.30
2018-09-18T15:59:02.677Z,47.80
2018-09-18T16:01:30.765Z,47.70
2018-09-18T16:03:59.270Z,48.10
2018-09-18T16:06:27.535Z,48.30
2018-09-18T16:08:55.844Z,48.60
2018-09-18T16:11:23.844Z,48.70
2018-09-18T16:23:44.278Z,50.80
2018-09-18T16:26:12.385Z,51.20
2018-09-18T16:31:08.484Z,52.00
2018-09-18T16:33:36.637Z,52.60
2018-09-18T16:36:04.998Z,52.80
2018-09-18T16:38:33.968Z,53.00
2018-09-18T16:43:30.179Z,53.30
2018-09-18T16:45:58.535Z,53.40
2018-09-18T16:48:27.268Z,53.40
2018-09-18T16:50:55.595Z,53.60
2018-09-18T16:53:23.874Z,54.00
2018-09-18T17:00:48.182Z,54.40
2018-09-18T17:05:44.377Z,54.90
2018-09-18T17:08:12.668Z,56.60
2018-09-18T17:10:40.739Z,56.90
2018-09-18T17:13:08.906Z,58.10
2018-09-18T17:15:37.196Z,59.10
2018-09-18T17:20:33.388Z,59.70
2018-09-18T17:23:01.721Z,60.40
2018-09-18T17:35:26.175Z,61.20
2018-09-18T17:37:54.513Z,61.10
2018-09-18T17:40:22.965Z,61.00
2018-09-18T17:42:51.170Z,61.40
2018-09-18T17:45:19.195Z,61.50
2018-09-18T17:50:15.419Z,61.60
2018-09-18T17:52:43.535Z,61.60
2018-09-18T17:55:11.960Z,61.80
2018-09-18T18:00:08.030Z,62.10
2018-09-18T18:02:36.498Z,62.30
2018-09-18T18:05:04.774Z,62.40
2018-09-18T18:10:03.548Z,62.40
2018-09-18T18:13:36.031Z,62.80
2018-09-18T18:16:04.307Z,63.00
2018-09-18T18:18:33.583Z,63.30
2018-09-18T18:21:01.885Z,63.80
2018-09-18T18:23:30.221Z,64.20
2018-09-18T18:25:58.448Z,64.60
2018-09-18T18:30:54.598Z,65.00
2018-09-18T18:33:22.677Z,65.40
2018-09-18T18:35:50.735Z,65.60
2018-09-18T18:38:18.825Z,65.80
2018-09-18T18:40:47.170Z,65.40
2018-09-18T18:43:15.287Z,65.70
2018-09-18T18:45:43.620Z,65.70
2018-09-18T18:48:11.849Z,65.90
2018-09-18T18:50:40.075Z,65.70
2018-09-18T18:55:36.182Z,66.00
2018-09-18T18:58:04.241Z,66.40
2018-09-18T19:03:00.187Z,67.10
2018-09-18T19:07:56.199Z,67.20
2018-09-18T19:10:24.344Z,67.50
2018-09-18T19:17:48.501Z,67.70
2018-09-18T19:22:44.827Z,67.90
2018-09-18T19:27:41.992Z,68.00
2018-09-18T19:30:10.191Z,68.10
2018-09-18T19:32:38.448Z,68.00
2018-09-18T19:40:02.743Z,68.70
2018-09-18T19:44:58.841Z,68.90
2018-09-18T19:49:55.851Z,69.10
2018-09-18T19:52:25.072Z,69.40
2018-09-18T19:54:53.310Z,69.30
2018-09-18T19:57:21.364Z,69.10
2018-09-18T19:59:49.386Z,69.40
2018-09-18T20:02:17.908Z,69.20
2018-09-18T20:04:46.013Z,69.60
2018-09-18T20:07:14.270Z,69.80
2018-09-18T20:12:13.630Z,70.00
2018-09-18T20:14:41.866Z,70.20
2018-09-18T20:17:10.194Z,70.20
2018-09-18T20:19:38.242Z,70.30
2018-09-18T20:24:35.754Z,70.40
2018-09-18T20:27:04.010Z,70.50
2018-09-18T20:29:32.213Z,70.40
2018-09-18T20:34:28.298Z,71.00
2018-09-18T20:36:56.402Z,71.00
2018-09-18T20:39:24.669Z,71.10
2018-09-18T20:44:20.845Z,71.50
2018-09-18T20:46:49.224Z,71.60
2018-09-18T20:51:45.454Z,71.40
2018-09-18T20:54:13.737Z,71.60
2018-09-18T20:56:41.850Z,71.40
2018-09-18T20:59:09.868Z,71.70
2018-09-18T21:01:37.951Z,71.90
2018-09-18T21:04:06.167Z,72.10
2018-09-18T21:06:34.393Z,72.60
2018-09-18T21:09:02.519Z,72.70
2018-09-18T21:11:30.542Z,72.70
2018-09-18T21:13:58.673Z,72.70
2018-09-18T21:16:26.973Z,73.10
2018-09-18T21:18:55.097Z,73.20
2018-09-18T21:21:23.139Z,73.30
2018-09-18T21:23:51.208Z,73.40
2018-09-18T21:26:19.544Z,73.70
2018-09-18T21:28:48.145Z,73.90
2018-09-18T21:31:16.720Z,73.60
2018-09-18T21:33:45.896Z,73.60
2018-09-18T21:38:42.071Z,73.50
2018-09-18T21:41:10.242Z,73.60
2018-09-18T21:43:38.535Z,73.70
2018-09-18T21:46:06.694Z,73.70
2018-09-18T21:48:35.825Z,74.50
2018-09-18T21:51:03.997Z,74.70
2018-09-18T21:53:32.079Z,74.80
2018-09-18T21:56:00.230Z,75.50
2018-09-18T22:00:56.197Z,75.20
2018-09-18T22:08:20.899Z,75.50
2018-09-18T22:10:49.163Z,75.70
2018-09-18T22:13:17.242Z,75.50
2018-09-18T22:15:45.343Z,75.80
2018-09-18T22:18:13.368Z,75.80
2018-09-18T22:20:43.046Z,75.70
2018-09-18T22:23:11.406Z,75.80
2018-09-18T22:25:39.949Z,75.80
2018-09-18T22:30:36.194Z,76.10
2018-09-18T22:33:04.256Z,76.20
2018-09-18T22:35:32.314Z,76.30
2018-09-18T22:38:00.452Z,76.00
2018-09-18T22:40:28.759Z,76.20
2018-09-18T22:45:28.649Z,76.70
2018-09-18T22:47:57.775Z,76.80
2018-09-18T22:55:21.897Z,77.00
2018-09-18T23:05:14.451Z,76.60
2018-09-18T23:07:42.513Z,76.50
2018-09-18T23:10:10.586Z,76.50
2018-09-18T23:12:38.614Z,76.50
2018-09-18T23:15:06.786Z,76.30
2018-09-18T23:17:34.833Z,76.20
2018-09-18T23:20:03.258Z,76.20
2018-09-18T23:22:31.507Z,76.60
2018-09-18T23:24:59.628Z,76.90
2018-09-18T23:27:27.743Z,76.90
2018-09-18T23:29:56.020Z,76.70
2018-09-18T23:32:24.078Z,76.70
2018-09-18T23:34:52.790Z,76.40
2018-09-18T23:37:20.926Z,76.00
2018-09-18T23:39:49.220Z,76.20
2018-09-18T23:49:41.977Z,76.60
2018-09-18T23:52:10.315Z,76.90
2018-09-18T23:54:38.663Z,77.20
2018-09-18T23:57:07.050Z,77.30
2018-09-18T23:59:35.438Z,77.00
